createdAt,value
2024-03-17T00:00:07.710Z,662.00
2024-03-17T00:01:07.709Z,665.00
2024-03-17T00:02:07.711Z,664.00
2024-03-17T00:03:07.725Z,665.00
2024-03-17T00:04:07.799Z,662.00
2024-03-17T00:05:07.727Z,661.00
2024-03-17T00:06:07.742Z,661.00
2024-03-17T00:07:07.744Z,664.00
2024-03-17T00:08:07.751Z,664.00
2024-03-17T00:09:07.752Z,664.00
2024-03-17T00:10:07.826Z,664.00
2024-03-17T00:11:07.845Z,665.00
2024-03-17T00:12:07.763Z,665.00
2024-03-17T00:13:07.773Z,663.00
2024-03-17T00:14:07.777Z,664.00
2024-03-17T00:15:07.783Z,665.00
2024-03-17T00:16:07.787Z,665.00
2024-03-17T00:17:08.550Z,667.00
2024-03-17T00:18:07.797Z,668.00
2024-03-17T00:19:07.857Z,669.00
2024-03-17T00:20:07.810Z,667.00
2024-03-17T00:21:07.832Z,666.00
2024-03-17T00:22:07.842Z,664.00
2024-03-17T00:23:07.844Z,664.00
2024-03-17T00:24:07.856Z,666.00
2024-03-17T00:25:07.923Z,666.00
2024-03-17T00:26:07.896Z,668.00
2024-03-17T00:27:07.891Z,667.00
2024-03-17T00:28:07.923Z,666.00
2024-03-17T00:29:07.911Z,665.00
2024-03-17T00:30:07.919Z,662.00
2024-03-17T00:31:07.932Z,665.00
2024-03-17T00:32:07.940Z,662.00
2024-03-17T00:33:07.966Z,663.00
2024-03-17T00:34:07.963Z,666.00
2024-03-17T00:35:07.982Z,667.00
2024-03-17T00:36:08.009Z,669.00
2024-03-17T00:37:08.008Z,669.00
2024-03-17T00:38:08.037Z,672.00
2024-03-17T00:39:08.030Z,671.00
2024-03-17T00:40:08.046Z,671.00
2024-03-17T00:41:08.058Z,673.00
2024-03-17T00:42:08.070Z,672.00
2024-03-17T00:43:08.075Z,670.00
2024-03-17T00:44:08.082Z,668.00
2024-03-17T00:45:08.092Z,667.00
2024-03-17T00:46:08.103Z,667.00
2024-03-17T00:47:08.119Z,669.00
2024-03-17T00:48:08.130Z,670.00
2024-03-17T00:49:08.134Z,671.00
2024-03-17T00:50:08.147Z,669.00
2024-03-17T00:51:08.156Z,667.00
2024-03-17T00:52:08.165Z,670.00
2024-03-17T00:53:08.172Z,665.00
2024-03-17T00:54:08.184Z,666.00
2024-03-17T00:55:08.191Z,669.00
2024-03-17T00:56:08.196Z,669.00
2024-03-17T00:57:08.202Z,669.00
2024-03-17T00:58:08.224Z,668.00
2024-03-17T00:59:08.218Z,669.00
2024-03-17T01:00:08.373Z,670.00
2024-03-17T01:01:08.246Z,671.00
2024-03-17T01:02:08.259Z,671.00
2024-03-17T01:03:08.268Z,668.00
2024-03-17T01:04:08.281Z,667.00
2024-03-17T01:05:08.289Z,667.00
2024-03-17T01:06:08.297Z,666.00
2024-03-17T01:07:08.316Z,666.00
2024-03-17T01:08:08.327Z,665.00
2024-03-17T01:09:08.337Z,666.00
2024-03-17T01:10:08.531Z,664.00
2024-03-17T01:11:08.362Z,664.00
2024-03-17T01:12:09.098Z,664.00
2024-03-17T01:13:08.382Z,663.00
2024-03-17T01:14:08.390Z,664.00
2024-03-17T01:15:08.486Z,663.00
2024-03-17T01:16:08.424Z,663.00
2024-03-17T01:17:08.432Z,662.00
2024-03-17T01:18:08.426Z,662.00
2024-03-17T01:19:08.447Z,665.00
2024-03-17T01:20:08.460Z,663.00
2024-03-17T01:21:08.489Z,662.00
2024-03-17T01:22:08.484Z,659.00
2024-03-17T01:23:08.504Z,661.00
2024-03-17T01:24:08.518Z,662.00
2024-03-17T01:25:08.529Z,663.00
2024-03-17T01:26:09.078Z,666.00
2024-03-17T01:27:08.565Z,665.00
2024-03-17T01:28:08.578Z,664.00
2024-03-17T01:29:08.585Z,664.00
2024-03-17T01:30:09.578Z,666.00
2024-03-17T01:31:08.606Z,669.00
2024-03-17T01:32:08.611Z,670.00
2024-03-17T01:33:08.645Z,666.00
2024-03-17T01:34:08.651Z,663.00
2024-03-17T01:35:08.671Z,663.00
2024-03-17T01:36:08.690Z,664.00
2024-03-17T01:37:08.706Z,665.00
2024-03-17T01:38:08.721Z,664.00
2024-03-17T01:39:09.578Z,662.00
2024-03-17T01:40:09.595Z,662.00
2024-03-17T01:41:08.784Z,663.00
2024-03-17T01:42:08.775Z,663.00
2024-03-17T01:43:08.791Z,663.00
2024-03-17T01:44:08.816Z,663.00
2024-03-17T01:45:08.822Z,663.00
2024-03-17T01:46:08.841Z,665.00
2024-03-17T01:47:08.843Z,666.00
2024-03-17T01:48:08.863Z,663.00
2024-03-17T01:49:08.876Z,659.00
2024-03-17T01:50:08.893Z,660.00
2024-03-17T01:51:08.907Z,658.00
2024-03-17T01:52:08.918Z,659.00
2024-03-17T01:53:09.626Z,660.00
2024-03-17T01:54:08.955Z,663.00
2024-03-17T01:55:08.961Z,664.00
2024-03-17T01:56:08.979Z,662.00
2024-03-17T01:57:08.984Z,659.00
2024-03-17T01:58:09.063Z,660.00
2024-03-17T01:59:09.010Z,661.00
2024-03-17T02:00:09.028Z,662.00
2024-03-17T02:01:09.146Z,663.00
2024-03-17T02:02:09.056Z,664.00
2024-03-17T02:03:09.067Z,667.00
2024-03-17T02:04:09.091Z,669.00
2024-03-17T02:05:09.098Z,669.00
2024-03-17T02:06:10.088Z,668.00
2024-03-17T02:07:09.141Z,663.00
2024-03-17T02:08:09.150Z,661.00
2024-03-17T02:09:09.156Z,660.00
2024-03-17T02:10:09.262Z,658.00
2024-03-17T02:11:09.189Z,657.00
2024-03-17T02:12:09.230Z,657.00
2024-03-17T02:13:09.223Z,657.00
2024-03-17T02:14:09.249Z,654.00
2024-03-17T02:15:09.247Z,655.00
2024-03-17T02:16:09.279Z,659.00
2024-03-17T02:17:09.287Z,657.00
2024-03-17T02:18:09.315Z,655.00
2024-03-17T02:19:09.347Z,657.00
2024-03-17T02:20:09.339Z,656.00
2024-03-17T02:21:09.354Z,657.00
2024-03-17T02:22:09.364Z,653.00
2024-03-17T02:23:09.401Z,655.00
2024-03-17T02:24:09.399Z,656.00
2024-03-17T02:25:09.411Z,656.00
2024-03-17T02:26:09.427Z,653.00
2024-03-17T02:27:09.452Z,649.00
2024-03-17T02:28:09.462Z,647.00
2024-03-17T02:29:09.466Z,649.00
2024-03-17T02:30:09.488Z,650.00
2024-03-17T02:31:09.504Z,648.00
2024-03-17T02:32:09.517Z,647.00
2024-03-17T02:33:09.522Z,646.00
2024-03-17T02:34:09.542Z,647.00
2024-03-17T02:35:09.558Z,649.00
2024-03-17T02:36:09.564Z,649.00
2024-03-17T02:37:09.616Z,651.00
2024-03-17T02:38:09.595Z,649.00
2024-03-17T02:39:09.617Z,652.00
2024-03-17T02:40:09.644Z,654.00
2024-03-17T02:41:09.634Z,653.00
2024-03-17T02:42:09.643Z,654.00
2024-03-17T02:43:09.657Z,653.00
2024-03-17T02:44:09.678Z,649.00
2024-03-17T02:45:09.694Z,650.00
2024-03-17T02:46:09.707Z,649.00
2024-03-17T02:47:09.727Z,649.00
2024-03-17T02:48:09.751Z,648.00
2024-03-17T02:49:09.785Z,644.00
2024-03-17T02:50:09.811Z,642.00
2024-03-17T02:51:09.796Z,642.00
2024-03-17T02:52:09.824Z,641.00
2024-03-17T02:53:09.832Z,644.00
2024-03-17T02:54:13.243Z,644.00
2024-03-17T02:55:10.923Z,646.00
2024-03-17T02:56:09.825Z,646.00
2024-03-17T02:57:09.812Z,645.00
2024-03-17T02:58:09.801Z,645.00
2024-03-17T02:59:09.783Z,643.00
2024-03-17T03:00:09.776Z,649.00
2024-03-17T03:01:09.770Z,646.00
2024-03-17T03:02:09.763Z,649.00
2024-03-17T03:03:09.747Z,647.00
2024-03-17T03:04:09.741Z,647.00
2024-03-17T03:05:09.757Z,646.00
2024-03-17T03:06:09.723Z,645.00
2024-03-17T03:07:09.731Z,645.00
2024-03-17T03:08:09.718Z,644.00
2024-03-17T03:09:09.788Z,644.00
2024-03-17T03:10:09.727Z,648.00
2024-03-17T03:11:09.693Z,645.00
2024-03-17T03:12:09.697Z,643.00
2024-03-17T03:13:09.735Z,641.00
2024-03-17T03:14:09.674Z,642.00
2024-03-17T03:15:09.718Z,642.00
2024-03-17T03:16:09.671Z,639.00
2024-03-17T03:17:09.686Z,639.00
2024-03-17T03:18:09.687Z,638.00
2024-03-17T03:19:09.697Z,636.00
2024-03-17T03:20:09.721Z,634.00
2024-03-17T03:21:09.737Z,636.00
2024-03-17T03:22:09.744Z,636.00
2024-03-17T03:23:09.766Z,633.00
2024-03-17T03:24:09.800Z,633.00
2024-03-17T03:25:09.821Z,635.00
2024-03-17T03:26:09.827Z,632.00
2024-03-17T03:27:09.845Z,633.00
2024-03-17T03:28:09.877Z,638.00
2024-03-17T03:29:09.868Z,638.00
2024-03-17T03:30:09.880Z,641.00
2024-03-17T03:31:09.920Z,641.00
2024-03-17T03:32:10.006Z,643.00
2024-03-17T03:33:09.942Z,643.00
2024-03-17T03:34:09.979Z,641.00
2024-03-17T03:35:09.988Z,641.00
2024-03-17T03:36:10.002Z,639.00
2024-03-17T03:37:10.017Z,639.00
2024-03-17T03:38:10.043Z,641.00
2024-03-17T03:39:10.045Z,640.00
2024-03-17T03:40:10.089Z,641.00
2024-03-17T03:41:10.089Z,642.00
2024-03-17T03:42:10.095Z,642.00
2024-03-17T03:43:10.127Z,641.00
2024-03-17T03:44:10.123Z,643.00
2024-03-17T03:45:10.133Z,642.00
2024-03-17T03:46:10.153Z,642.00
2024-03-17T03:47:10.182Z,640.00
2024-03-17T03:48:10.254Z,643.00
2024-03-17T03:49:10.337Z,645.00
2024-03-17T03:50:10.226Z,639.00
2024-03-17T03:51:10.244Z,640.00
2024-03-17T03:52:10.285Z,640.00
2024-03-17T03:53:10.278Z,637.00
2024-03-17T03:54:10.289Z,639.00
2024-03-17T03:55:10.324Z,640.00
2024-03-17T03:56:10.328Z,639.00
2024-03-17T03:57:10.433Z,636.00
2024-03-17T03:58:10.394Z,638.00
2024-03-17T03:59:10.391Z,638.00
2024-03-17T04:00:10.422Z,639.00
2024-03-17T04:01:10.475Z,636.00
2024-03-17T04:02:10.444Z,635.00
2024-03-17T04:03:11.133Z,639.00
2024-03-17T04:04:10.592Z,642.00
2024-03-17T04:05:10.512Z,643.00
2024-03-17T04:06:10.617Z,645.00
2024-03-17T04:07:10.565Z,640.00
2024-03-17T04:08:10.560Z,637.00
2024-03-17T04:09:10.588Z,638.00
2024-03-17T04:10:10.628Z,640.00
2024-03-17T04:11:10.626Z,635.00
2024-03-17T04:12:10.645Z,635.00
2024-03-17T04:13:10.676Z,637.00
2024-03-17T04:14:10.671Z,639.00
2024-03-17T04:15:10.697Z,636.00
2024-03-17T04:16:10.744Z,635.00
2024-03-17T04:17:10.731Z,634.00
2024-03-17T04:18:10.759Z,633.00
2024-03-17T04:19:10.789Z,634.00
2024-03-17T04:20:10.796Z,635.00
2024-03-17T04:21:10.815Z,634.00
2024-03-17T04:22:10.852Z,632.00
2024-03-17T04:23:10.854Z,634.00
2024-03-17T04:24:18.054Z,624.00
2024-03-17T04:25:18.038Z,621.00
2024-03-17T04:26:18.032Z,619.00
2024-03-17T04:27:18.026Z,618.00
2024-03-17T04:28:18.028Z,618.00
2024-03-17T04:29:18.026Z,620.00
2024-03-17T04:30:18.075Z,621.00
2024-03-17T04:31:25.286Z,620.00
2024-03-17T04:32:25.301Z,620.00
2024-03-17T04:33:25.289Z,620.00
2024-03-17T04:34:25.288Z,624.00
2024-03-17T04:35:25.275Z,623.00
2024-03-17T04:36:25.278Z,623.00
2024-03-17T04:37:25.273Z,623.00
2024-03-17T04:38:25.335Z,624.00
2024-03-17T04:39:25.269Z,627.00
2024-03-17T04:40:25.266Z,625.00
2024-03-17T04:41:25.265Z,625.00
2024-03-17T04:42:25.260Z,624.00
2024-03-17T04:43:25.244Z,623.00
2024-03-17T04:44:25.244Z,620.00
2024-03-17T04:45:25.239Z,619.00
2024-03-17T04:46:25.238Z,618.00
2024-03-17T04:47:25.265Z,622.00
2024-03-17T04:48:25.297Z,621.00
2024-03-17T04:49:25.225Z,625.00
2024-03-17T04:50:25.221Z,626.00
2024-03-17T04:51:25.210Z,628.00
2024-03-17T04:52:25.199Z,629.00
2024-03-17T04:53:25.189Z,631.00
2024-03-17T04:54:25.178Z,631.00
2024-03-17T04:55:25.166Z,632.00
2024-03-17T04:56:25.157Z,631.00
2024-03-17T04:57:25.150Z,631.00
2024-03-17T04:58:25.157Z,632.00
2024-03-17T04:59:25.148Z,630.00
2024-03-17T05:00:25.148Z,628.00
2024-03-17T05:01:25.218Z,633.00
2024-03-17T05:02:25.122Z,635.00
2024-03-17T05:03:25.114Z,634.00
2024-03-17T05:04:25.138Z,634.00
2024-03-17T05:05:25.097Z,635.00
2024-03-17T05:06:25.106Z,635.00
2024-03-17T05:07:25.089Z,634.00
2024-03-17T05:08:25.078Z,631.00
2024-03-17T05:09:25.073Z,629.00
2024-03-17T05:10:25.084Z,631.00
2024-03-17T05:11:25.068Z,630.00
2024-03-17T05:12:25.053Z,628.00
2024-03-17T05:13:25.035Z,628.00
2024-03-17T05:14:25.908Z,626.00
2024-03-17T05:15:25.026Z,628.00
2024-03-17T05:16:25.014Z,624.00
2024-03-17T05:17:25.007Z,624.00
2024-03-17T05:18:24.993Z,624.00
2024-03-17T05:19:24.989Z,622.00
2024-03-17T05:20:24.983Z,627.00
2024-03-17T05:21:24.984Z,629.00
2024-03-17T05:22:24.984Z,625.00
2024-03-17T05:23:24.970Z,624.00
2024-03-17T05:24:24.963Z,623.00
2024-03-17T05:25:24.959Z,623.00
2024-03-17T05:26:24.957Z,627.00
2024-03-17T05:27:24.949Z,625.00
2024-03-17T05:28:24.943Z,624.00
2024-03-17T05:29:24.956Z,624.00
2024-03-17T05:30:24.929Z,627.00
2024-03-17T05:31:24.917Z,625.00
2024-03-17T05:32:24.976Z,627.00
2024-03-17T05:33:24.982Z,629.00
2024-03-17T05:34:24.918Z,629.00
2024-03-17T05:35:24.944Z,628.00
2024-03-17T05:36:24.996Z,628.00
2024-03-17T05:37:24.994Z,627.00
2024-03-17T05:38:25.061Z,625.00
2024-03-17T05:39:25.060Z,625.00
2024-03-17T05:40:25.082Z,625.00
2024-03-17T05:41:25.106Z,625.00
2024-03-17T05:42:25.137Z,627.00
2024-03-17T05:43:25.174Z,630.00
2024-03-17T05:44:25.188Z,630.00
2024-03-17T05:45:25.220Z,631.00
2024-03-17T05:46:25.482Z,634.00
2024-03-17T05:47:25.360Z,632.00
2024-03-17T05:48:25.306Z,632.00
2024-03-17T05:49:25.335Z,633.00
2024-03-17T05:50:25.361Z,635.00
2024-03-17T05:51:25.389Z,633.00
2024-03-17T05:52:25.402Z,634.00
2024-03-17T05:53:25.433Z,633.00
2024-03-17T05:54:25.450Z,633.00
2024-03-17T05:55:25.484Z,634.00
2024-03-17T05:56:25.538Z,633.00
2024-03-17T05:57:25.534Z,633.00
2024-03-17T05:58:25.548Z,632.00
2024-03-17T05:59:25.569Z,631.00
2024-03-17T06:00:25.603Z,629.00
2024-03-17T06:01:25.628Z,627.00
2024-03-17T06:02:25.648Z,624.00
2024-03-17T06:03:25.680Z,624.00
2024-03-17T06:04:25.740Z,623.00
2024-03-17T06:05:25.750Z,620.00
2024-03-17T06:06:25.767Z,623.00
2024-03-17T06:07:25.769Z,621.00
2024-03-17T06:08:25.948Z,619.00
2024-03-17T06:09:26.431Z,617.00
2024-03-17T06:10:25.847Z,618.00
2024-03-17T06:11:25.889Z,618.00
2024-03-17T06:12:25.904Z,620.00
2024-03-17T06:13:25.915Z,618.00
2024-03-17T06:14:25.937Z,618.00
2024-03-17T06:15:25.951Z,620.00
2024-03-17T06:16:25.972Z,621.00
2024-03-17T06:17:25.996Z,623.00
2024-03-17T06:18:26.026Z,625.00
2024-03-17T06:19:26.038Z,627.00
2024-03-17T06:20:26.939Z,625.00
2024-03-17T06:21:26.078Z,626.00
2024-03-17T06:22:26.099Z,627.00
2024-03-17T06:23:26.136Z,627.00
2024-03-17T06:24:26.150Z,624.00
2024-03-17T06:25:26.166Z,626.00
2024-03-17T06:26:26.869Z,623.00
2024-03-17T06:27:26.208Z,620.00
2024-03-17T06:28:26.235Z,618.00
2024-03-17T06:29:26.338Z,617.00
2024-03-17T06:30:27.380Z,615.00
2024-03-17T06:31:26.296Z,616.00
2024-03-17T06:32:26.416Z,617.00
2024-03-17T06:33:26.351Z,615.00
2024-03-17T06:34:26.367Z,618.00
2024-03-17T06:35:26.381Z,618.00
2024-03-17T06:36:26.948Z,616.00
2024-03-17T06:37:26.439Z,613.00
2024-03-17T06:38:26.468Z,614.00
2024-03-17T06:39:26.486Z,614.00
2024-03-17T06:40:26.549Z,615.00
2024-03-17T06:41:27.447Z,615.00
2024-03-17T06:42:26.552Z,615.00
2024-03-17T06:43:26.583Z,613.00
2024-03-17T06:44:26.644Z,612.00
2024-03-17T06:45:26.632Z,614.00
2024-03-17T06:46:26.634Z,614.00
2024-03-17T06:47:28.457Z,614.00
2024-03-17T06:48:26.640Z,615.00
2024-03-17T06:49:26.638Z,618.00
2024-03-17T06:50:26.622Z,617.00
2024-03-17T06:51:26.614Z,617.00
2024-03-17T06:52:26.600Z,616.00
2024-03-17T06:53:27.460Z,616.00
2024-03-17T06:54:26.586Z,618.00
2024-03-17T06:55:26.656Z,618.00
2024-03-17T06:56:26.658Z,619.00
2024-03-17T06:57:26.565Z,620.00
2024-03-17T06:58:26.560Z,617.00
2024-03-17T06:59:26.552Z,619.00
2024-03-17T07:00:26.549Z,620.00
2024-03-17T07:01:26.534Z,620.00
2024-03-17T07:02:26.537Z,620.00
2024-03-17T07:03:26.515Z,620.00
2024-03-17T07:04:26.505Z,623.00
2024-03-17T07:05:26.496Z,620.00
2024-03-17T07:06:26.488Z,620.00
2024-03-17T07:07:26.498Z,621.00
2024-03-17T07:08:26.492Z,623.00
2024-03-17T07:09:26.493Z,625.00
2024-03-17T07:10:26.492Z,625.00
2024-03-17T07:11:26.494Z,627.00
2024-03-17T07:12:26.559Z,629.00
2024-03-17T07:13:26.474Z,629.00
2024-03-17T07:14:26.482Z,627.00
2024-03-17T07:15:26.544Z,624.00
2024-03-17T07:16:26.453Z,622.00
2024-03-17T07:17:26.467Z,619.00
2024-03-17T07:18:26.447Z,615.00
2024-03-17T07:19:26.430Z,615.00
2024-03-17T07:20:26.424Z,614.00
2024-03-17T07:21:26.418Z,613.00
2024-03-17T07:22:26.415Z,617.00
2024-03-17T07:23:26.418Z,616.00
2024-03-17T07:24:26.405Z,616.00
2024-03-17T07:25:26.453Z,615.00
2024-03-17T07:26:26.387Z,613.00
2024-03-17T07:27:26.421Z,612.00
2024-03-17T07:28:26.383Z,612.00
2024-03-17T07:29:26.383Z,611.00
2024-03-17T07:30:26.374Z,611.00
2024-03-17T07:31:26.965Z,611.00
2024-03-17T07:32:26.397Z,611.00
2024-03-17T07:33:26.389Z,611.00
2024-03-17T07:34:26.389Z,611.00
2024-03-17T07:35:26.385Z,610.00
2024-03-17T07:36:26.376Z,609.00
2024-03-17T07:37:26.378Z,609.00
2024-03-17T07:38:26.384Z,607.00
2024-03-17T07:39:27.350Z,606.00
2024-03-17T07:40:26.440Z,606.00
2024-03-17T07:41:26.376Z,607.00
2024-03-17T07:42:26.389Z,610.00
2024-03-17T07:43:26.392Z,609.00
2024-03-17T07:44:26.373Z,609.00
2024-03-17T07:45:26.389Z,611.00
2024-03-17T07:46:26.412Z,612.00
2024-03-17T07:47:26.376Z,613.00
2024-03-17T07:48:26.473Z,614.00
2024-03-17T07:49:26.390Z,614.00
2024-03-17T07:50:26.385Z,614.00
2024-03-17T07:51:26.393Z,614.00
2024-03-17T07:52:26.396Z,612.00
2024-03-17T07:53:26.390Z,611.00
2024-03-17T07:54:26.388Z,612.00
2024-03-17T07:55:26.454Z,614.00
2024-03-17T07:56:26.390Z,616.00
2024-03-17T07:57:26.451Z,615.00
2024-03-17T07:58:26.409Z,614.00
2024-03-17T07:59:26.419Z,612.00
2024-03-17T08:00:26.443Z,613.00
2024-03-17T08:01:26.460Z,612.00
2024-03-17T08:02:26.992Z,610.00
2024-03-17T08:03:26.486Z,607.00
2024-03-17T08:04:26.513Z,608.00
2024-03-17T08:05:26.602Z,609.00
2024-03-17T08:06:26.541Z,612.00
2024-03-17T08:07:26.584Z,611.00
2024-03-17T08:08:27.495Z,609.00
2024-03-17T08:09:26.606Z,608.00
2024-03-17T08:10:26.699Z,608.00
2024-03-17T08:11:26.628Z,609.00
2024-03-17T08:12:26.650Z,608.00
2024-03-17T08:13:26.669Z,608.00
2024-03-17T08:14:26.679Z,609.00
2024-03-17T08:15:26.707Z,608.00
2024-03-17T08:16:26.729Z,608.00
2024-03-17T08:17:26.752Z,611.00
2024-03-17T08:18:26.757Z,608.00
2024-03-17T08:19:26.767Z,610.00
2024-03-17T08:20:26.786Z,610.00
2024-03-17T08:21:26.797Z,609.00
2024-03-17T08:22:27.481Z,607.00
2024-03-17T08:23:26.889Z,605.00
2024-03-17T08:24:26.829Z,606.00
2024-03-17T08:25:26.837Z,604.00
2024-03-17T08:26:26.850Z,604.00
2024-03-17T08:27:26.874Z,606.00
2024-03-17T08:28:26.873Z,605.00
2024-03-17T08:29:26.892Z,605.00
2024-03-17T08:30:27.916Z,603.00
2024-03-17T08:31:26.928Z,606.00
2024-03-17T08:32:26.973Z,607.00
2024-03-17T08:33:26.942Z,609.00
2024-03-17T08:34:26.956Z,609.00
2024-03-17T08:35:26.961Z,610.00
2024-03-17T08:36:26.982Z,610.00
2024-03-17T08:37:26.991Z,608.00
2024-03-17T08:38:26.979Z,605.00
2024-03-17T08:39:26.978Z,603.00
2024-03-17T08:40:26.987Z,600.00
2024-03-17T08:41:27.046Z,600.00
2024-03-17T08:42:26.991Z,600.00
2024-03-17T08:43:26.994Z,601.00
2024-03-17T08:44:26.999Z,601.00
2024-03-17T08:45:33.836Z,600.00
2024-03-17T08:46:27.995Z,601.00
2024-03-17T08:47:26.986Z,603.00
2024-03-17T08:48:26.972Z,602.00
2024-03-17T08:49:26.953Z,603.00
2024-03-17T08:50:26.942Z,602.00
2024-03-17T08:51:26.932Z,601.00
2024-03-17T08:52:26.923Z,603.00
2024-03-17T08:53:27.002Z,604.00
2024-03-17T08:54:26.915Z,607.00
2024-03-17T08:55:26.885Z,608.00
2024-03-17T08:56:26.880Z,606.00
2024-03-17T08:57:26.865Z,602.00
2024-03-17T08:58:26.859Z,601.00
2024-03-17T08:59:26.843Z,604.00
2024-03-17T09:00:26.847Z,604.00
2024-03-17T09:01:26.822Z,603.00
2024-03-17T09:02:26.884Z,602.00
2024-03-17T09:03:26.896Z,601.00
2024-03-17T09:04:26.815Z,600.00
2024-03-17T09:05:26.799Z,599.00
2024-03-17T09:06:26.866Z,603.00
2024-03-17T09:07:26.791Z,601.00
2024-03-17T09:08:26.781Z,598.00
2024-03-17T09:09:26.777Z,601.00
2024-03-17T09:10:26.756Z,601.00
2024-03-17T09:11:26.771Z,605.00
2024-03-17T09:12:26.742Z,605.00
2024-03-17T09:13:26.777Z,606.00
2024-03-17T09:14:26.708Z,605.00
2024-03-17T09:15:26.713Z,604.00
2024-03-17T09:16:26.693Z,605.00
2024-03-17T09:17:27.011Z,605.00
2024-03-17T09:18:26.676Z,603.00
2024-03-17T09:19:26.664Z,601.00
2024-03-17T09:20:26.655Z,598.00
2024-03-17T09:21:26.646Z,598.00
2024-03-17T09:22:26.643Z,598.00
2024-03-17T09:23:26.635Z,597.00
2024-03-17T09:24:26.676Z,597.00
2024-03-17T09:25:26.622Z,595.00
2024-03-17T09:26:26.614Z,594.00
2024-03-17T09:27:26.612Z,592.00
2024-03-17T09:28:26.607Z,590.00
2024-03-17T09:29:26.602Z,589.00
2024-03-17T09:30:26.612Z,591.00
2024-03-17T09:31:26.612Z,592.00
2024-03-17T09:32:26.607Z,591.00
2024-03-17T09:33:26.608Z,592.00
2024-03-17T09:34:26.612Z,592.00
2024-03-17T09:35:26.639Z,591.00
2024-03-17T09:36:26.606Z,592.00
2024-03-17T09:37:26.610Z,593.00
2024-03-17T09:38:26.612Z,597.00
2024-03-17T09:39:26.610Z,596.00
2024-03-17T09:40:27.518Z,595.00
2024-03-17T09:41:26.599Z,595.00
2024-03-17T09:42:26.590Z,595.00
2024-03-17T09:43:26.584Z,595.00
2024-03-17T09:44:26.584Z,597.00
2024-03-17T09:45:26.619Z,598.00
2024-03-17T09:46:26.585Z,596.00
2024-03-17T09:47:27.027Z,594.00
2024-03-17T09:48:27.508Z,593.00
2024-03-17T09:49:26.568Z,592.00
2024-03-17T09:50:26.562Z,592.00
2024-03-17T09:51:26.554Z,592.00
2024-03-17T09:52:26.554Z,592.00
2024-03-17T09:53:26.537Z,590.00
2024-03-17T09:54:26.532Z,593.00
2024-03-17T09:55:26.544Z,592.00
2024-03-17T09:56:26.525Z,593.00
2024-03-17T09:57:26.532Z,594.00
2024-03-17T09:58:26.533Z,593.00
2024-03-17T09:59:26.531Z,590.00
2024-03-17T10:00:26.549Z,589.00
2024-03-17T10:01:26.522Z,591.00
2024-03-17T10:02:26.542Z,593.00
2024-03-17T10:03:26.567Z,593.00
2024-03-17T10:04:26.527Z,592.00
2024-03-17T10:05:26.593Z,591.00
2024-03-17T10:06:26.518Z,591.00
2024-03-17T10:07:26.491Z,588.00
2024-03-17T10:08:26.535Z,589.00
2024-03-17T10:09:26.485Z,589.00
2024-03-17T10:10:26.497Z,589.00
2024-03-17T10:11:26.503Z,590.00
2024-03-17T10:12:26.521Z,590.00
2024-03-17T10:13:26.594Z,590.00
2024-03-17T10:14:26.535Z,590.00
2024-03-17T10:15:26.509Z,592.00
2024-03-17T10:16:27.027Z,591.00
2024-03-17T10:17:27.031Z,589.00
2024-03-17T10:18:26.511Z,590.00
2024-03-17T10:19:29.934Z,593.00
2024-03-17T10:20:26.537Z,595.00
2024-03-17T10:21:26.531Z,593.00
2024-03-17T10:22:26.527Z,593.00
2024-03-17T10:23:26.512Z,592.00
2024-03-17T10:24:26.504Z,593.00
2024-03-17T10:25:26.505Z,598.00
2024-03-17T10:26:26.494Z,602.00
2024-03-17T10:27:27.028Z,603.00
2024-03-17T10:28:26.529Z,605.00
2024-03-17T10:29:26.467Z,603.00
2024-03-17T10:30:26.461Z,602.00
2024-03-17T10:31:26.457Z,600.00
2024-03-17T10:32:26.462Z,596.00
2024-03-17T10:33:26.433Z,592.00
2024-03-17T10:34:27.642Z,592.00
2024-03-17T10:35:26.414Z,593.00
2024-03-17T10:36:26.408Z,592.00
2024-03-17T10:37:26.412Z,592.00
2024-03-17T10:38:26.389Z,592.00
2024-03-17T10:39:26.379Z,591.00
2024-03-17T10:40:26.366Z,591.00
2024-03-17T10:41:26.353Z,588.00
2024-03-17T10:42:26.349Z,589.00
2024-03-17T10:43:26.396Z,592.00
2024-03-17T10:44:26.322Z,593.00
2024-03-17T10:45:26.316Z,595.00
2024-03-17T10:46:28.285Z,595.00
2024-03-17T10:47:26.294Z,594.00
2024-03-17T10:48:26.353Z,592.00
2024-03-17T10:49:26.280Z,591.00
2024-03-17T10:50:26.275Z,591.00
2024-03-17T10:51:26.267Z,590.00
2024-03-17T10:52:29.866Z,591.00
2024-03-17T10:53:27.246Z,591.00
2024-03-17T10:54:26.290Z,592.00
2024-03-17T10:55:26.314Z,591.00
2024-03-17T10:56:26.222Z,591.00
2024-03-17T10:57:26.218Z,590.00
2024-03-17T10:58:26.216Z,590.00
2024-03-17T10:59:27.104Z,593.00
2024-03-17T11:00:26.230Z,594.00
2024-03-17T11:01:26.161Z,595.00
2024-03-17T11:02:26.169Z,595.00
2024-03-17T11:03:26.137Z,595.00
2024-03-17T11:04:26.138Z,594.00
2024-03-17T11:05:26.129Z,592.00
2024-03-17T11:06:26.145Z,591.00
2024-03-17T11:07:26.152Z,593.00
2024-03-17T11:08:32.042Z,597.00
2024-03-17T11:09:27.089Z,596.00
2024-03-17T11:10:26.110Z,596.00
2024-03-17T11:11:26.085Z,599.00
2024-03-17T11:12:26.281Z,600.00
2024-03-17T11:13:26.060Z,598.00
2024-03-17T11:14:26.046Z,595.00
2024-03-17T11:15:26.043Z,593.00
2024-03-17T11:16:26.020Z,591.00
2024-03-17T11:17:26.027Z,590.00
2024-03-17T11:18:25.996Z,589.00
2024-03-17T11:19:25.985Z,591.00
2024-03-17T11:20:25.995Z,593.00
2024-03-17T11:21:25.965Z,592.00
2024-03-17T11:22:26.018Z,590.00
2024-03-17T11:23:28.108Z,590.00
2024-03-17T11:24:26.066Z,590.00
2024-03-17T11:25:26.103Z,588.00
2024-03-17T11:26:26.116Z,588.00
2024-03-17T11:27:26.167Z,592.00
2024-03-17T11:28:26.169Z,594.00
2024-03-17T11:29:26.165Z,595.00
2024-03-17T11:30:26.153Z,595.00
2024-03-17T11:31:26.173Z,594.00
2024-03-17T11:32:26.200Z,594.00
2024-03-17T11:33:26.194Z,591.00
2024-03-17T11:34:26.232Z,589.00
2024-03-17T11:35:26.239Z,586.00
2024-03-17T11:36:27.047Z,584.00
2024-03-17T11:37:26.269Z,587.00
2024-03-17T11:38:26.269Z,587.00
2024-03-17T11:39:26.335Z,586.00
2024-03-17T11:40:26.317Z,586.00
2024-03-17T11:41:26.345Z,588.00
2024-03-17T11:42:26.404Z,589.00
2024-03-17T11:43:28.550Z,591.00
2024-03-17T11:44:26.478Z,591.00
2024-03-17T11:45:26.387Z,591.00
2024-03-17T11:46:26.478Z,592.00
2024-03-17T11:47:26.384Z,591.00
2024-03-17T11:48:26.341Z,590.00
2024-03-17T11:49:26.361Z,589.00
2024-03-17T11:50:26.312Z,590.00
2024-03-17T11:51:26.295Z,586.00
2024-03-17T11:52:26.334Z,588.00
2024-03-17T11:53:26.275Z,589.00
2024-03-17T11:54:26.262Z,590.00
2024-03-17T11:55:26.249Z,592.00
2024-03-17T11:56:26.242Z,593.00
2024-03-17T11:57:26.224Z,592.00
2024-03-17T11:58:26.319Z,590.00
2024-03-17T11:59:26.215Z,587.00
2024-03-17T12:00:26.195Z,587.00
2024-03-17T12:01:26.182Z,585.00
2024-03-17T12:02:26.164Z,585.00
2024-03-17T12:03:26.145Z,585.00
2024-03-17T12:04:27.126Z,584.00
2024-03-17T12:05:26.112Z,582.00
2024-03-17T12:06:26.111Z,584.00
2024-03-17T12:07:26.123Z,580.00
2024-03-17T12:08:26.084Z,581.00
2024-03-17T12:09:26.064Z,578.00
2024-03-17T12:10:26.068Z,577.00
2024-03-17T12:11:26.031Z,579.00
2024-03-17T12:12:26.043Z,578.00
2024-03-17T12:13:26.018Z,578.00
2024-03-17T12:14:25.990Z,579.00
2024-03-17T12:15:25.976Z,580.00
2024-03-17T12:16:25.978Z,584.00
2024-03-17T12:17:25.946Z,584.00
2024-03-17T12:18:26.053Z,584.00
2024-03-17T12:19:26.058Z,584.00
2024-03-17T12:20:26.080Z,583.00
2024-03-17T12:21:26.130Z,585.00
2024-03-17T12:22:26.210Z,585.00
2024-03-17T12:23:26.234Z,588.00
2024-03-17T12:24:26.286Z,590.00
2024-03-17T12:25:27.050Z,589.00
2024-03-17T12:26:26.386Z,590.00
2024-03-17T12:27:26.423Z,589.00
2024-03-17T12:28:26.500Z,588.00